CAL063 RCTP-LOWW
Flight info
| Callsign | CAL063 |
|---|---|
| Flight time | N/A |
| Altitude | 34000 |
| Route | CHALI1A CHALI T3 MKG A1 KADLO T1 KAPLI/N0500F360 DCT ALLEY V10 SIKOU/K0926S1100 R339 WUY R474 TEBAK/K0926F360 R474 NOB W21 BQ B214 LADON/N0501F360 B214 AKSAG B465 APAGO/N0502F380 B465 CEA R460 LKN M890 SULOM A466 DI N644 LEMOD/N0499F400 A909 RODAR N644 ADEKI DCT BADIR DCT LAGAS DCT FOQUS DCT SARPI UM10 GOKPA UL746 ODERO L746 LUGEB DCT BUDOP DCT BALUX DCT TORNO DCT NATEX NATEX2W |
| Aircraft | A359/H-SDE2E3GHIJ3J4J5LM1ORWXY/LB1D1 |
Departure
| Time | 2026-04-30 18:39 |
|---|---|
| Airport | Taiwan Taoyuan International Airport (RCTP) |
Arrival
| Time | N/A |
|---|---|
| Airport | Vienna International Airport (LOWW) |
| Time | Latitude | Longitude | Altitude | Speed | Heading |
|---|---|---|---|---|---|
| 2026-04-30 18:00 | 25.08206 | 121.23473 | 107 ft | 0 kts | 139° |
| 2026-04-30 18:18 | 25.08228 | 121.23452 | 104 ft | 4 kts | 139° |
| 2026-04-30 18:19 | 25.08249 | 121.23432 | 104 ft | 4 kts | 139° |
| 2026-04-30 18:19 | 25.08263 | 121.23419 | 104 ft | 4 kts | 139° |
| 2026-04-30 18:19 | 25.08283 | 121.23401 | 105 ft | 4 kts | 148° |
| 2026-04-30 18:19 | 25.08306 | 121.23392 | 106 ft | 4 kts | 193° |
| 2026-04-30 18:20 | 25.08328 | 121.23409 | 104 ft | 4 kts | 229° |
| 2026-04-30 18:20 | 25.08340 | 121.23424 | 106 ft | 3 kts | 229° |
| 2026-04-30 18:20 | 25.08341 | 121.23426 | 106 ft | 0 kts | 229° |
| 2026-04-30 18:22 | 25.08337 | 121.23420 | 106 ft | 4 kts | 229° |
| 2026-04-30 18:23 | 25.08316 | 121.23395 | 105 ft | 5 kts | 229° |
| 2026-04-30 18:23 | 25.08289 | 121.23359 | 106 ft | 7 kts | 229° |
| 2026-04-30 18:23 | 25.08251 | 121.23311 | 106 ft | 9 kts | 230° |
| 2026-04-30 18:23 | 25.08210 | 121.23258 | 104 ft | 4 kts | 229° |
| 2026-04-30 18:24 | 25.08209 | 121.23257 | 105 ft | 0 kts | 229° |
| 2026-04-30 18:25 | 25.08190 | 121.23232 | 105 ft | 4 kts | 229° |
| 2026-04-30 18:25 | 25.08169 | 121.23206 | 105 ft | 5 kts | 229° |
| 2026-04-30 18:26 | 25.08179 | 121.23142 | 107 ft | 7 kts | 319° |
| 2026-04-30 18:26 | 25.08198 | 121.23084 | 107 ft | 11 kts | 253° |
| 2026-04-30 18:26 | 25.08148 | 121.23012 | 106 ft | 13 kts | 228° |
| 2026-04-30 18:27 | 25.08024 | 121.22853 | 104 ft | 14 kts | 229° |
| 2026-04-30 18:27 | 25.07951 | 121.22761 | 104 ft | 17 kts | 229° |
| 2026-04-30 18:28 | 25.07791 | 121.22558 | 106 ft | 18 kts | 229° |
| 2026-04-30 18:28 | 25.07710 | 121.22455 | 106 ft | 18 kts | 229° |
| 2026-04-30 18:28 | 25.07545 | 121.22246 | 105 ft | 18 kts | 229° |
| 2026-04-30 18:29 | 25.07463 | 121.22140 | 105 ft | 19 kts | 229° |
| 2026-04-30 18:29 | 25.07199 | 121.22223 | 104 ft | 15 kts | 139° |
| 2026-04-30 18:30 | 25.07041 | 121.22373 | 107 ft | 15 kts | 139° |
| 2026-04-30 18:30 | 25.06886 | 121.22519 | 105 ft | 15 kts | 140° |
| 2026-04-30 18:31 | 25.06809 | 121.22592 | 107 ft | 15 kts | 140° |
| 2026-04-30 18:31 | 25.06681 | 121.22713 | 105 ft | 9 kts | 140° |
| 2026-04-30 18:32 | 25.06584 | 121.22669 | 104 ft | 9 kts | 228° |
| 2026-04-30 18:32 | 25.06539 | 121.22612 | 105 ft | 12 kts | 229° |
| 2026-04-30 18:32 | 25.06395 | 121.22430 | 105 ft | 17 kts | 229° |
| 2026-04-30 18:33 | 25.06321 | 121.22336 | 106 ft | 11 kts | 229° |
| 2026-04-30 18:33 | 25.06261 | 121.22261 | 106 ft | 6 kts | 227° |
| 2026-04-30 18:33 | 25.06226 | 121.22248 | 104 ft | 6 kts | 181° |
| 2026-04-30 18:34 | 25.06188 | 121.22267 | 105 ft | 6 kts | 144° |
| 2026-04-30 18:34 | 25.06184 | 121.22271 | 105 ft | 0 kts | 139° |
| 2026-04-30 18:35 | 25.06183 | 121.22272 | 105 ft | 1 kts | 139° |
| 2026-04-30 18:36 | 25.06108 | 121.22345 | 105 ft | 8 kts | 139° |
| 2026-04-30 18:36 | 25.06097 | 121.22365 | 105 ft | 1 kts | 90° |
| 2026-04-30 18:36 | 25.06110 | 121.22387 | 104 ft | 0 kts | 50° |
| 2026-04-30 18:38 | 25.06110 | 121.22388 | 104 ft | 1 kts | 50° |
| 2026-04-30 18:38 | 25.06189 | 121.22488 | 104 ft | 42 kts | 49° |
| 2026-04-30 18:38 | 25.06497 | 121.22879 | 102 ft | 91 kts | 49° |
| 2026-04-30 18:38 | 25.07001 | 121.23517 | 104 ft | 132 kts | 49° |
| 2026-04-30 18:39 | 25.07659 | 121.24359 | 383 ft | 140 kts | 50° |
| 2026-04-30 18:39 | 25.08260 | 121.25139 | 877 ft | 135 kts | 50° |
| 2026-04-30 18:39 | 25.08909 | 121.25973 | 1025 ft | 151 kts | 51° |
| 2026-04-30 18:39 | 25.09615 | 121.26887 | 1278 ft | 163 kts | 50° |
| 2026-04-30 18:40 | 25.10450 | 121.27835 | 1380 ft | 182 kts | 39° |
| 2026-04-30 18:40 | 25.11667 | 121.28360 | 1571 ft | 200 kts | 6° |
| 2026-04-30 18:40 | 25.13109 | 121.28073 | 1742 ft | 223 kts | 346° |
| 2026-04-30 18:40 | 25.14561 | 121.27274 | 1882 ft | 247 kts | 324° |
| 2026-04-30 18:41 | 25.15521 | 121.25676 | 2131 ft | 266 kts | 287° |
| 2026-04-30 18:41 | 25.15480 | 121.23622 | 2566 ft | 276 kts | 252° |
| 2026-04-30 18:41 | 25.14488 | 121.21789 | 2989 ft | 283 kts | 232° |
| 2026-04-30 18:41 | 25.13274 | 121.20070 | 3561 ft | 281 kts | 235° |
| 2026-04-30 18:42 | 25.12212 | 121.18314 | 4412 ft | 268 kts | 238° |
| 2026-04-30 18:42 | 25.10287 | 121.15074 | 6112 ft | 245 kts | 237° |
| 2026-04-30 18:42 | 25.09349 | 121.13470 | 6555 ft | 251 kts | 237° |
| 2026-04-30 18:45 | 24.99168 | 120.95858 | 10701 ft | 312 kts | 239° |
| 2026-04-30 18:45 | 24.97978 | 120.93802 | 10920 ft | 324 kts | 239° |
| 2026-04-30 18:45 | 24.96745 | 120.91672 | 11091 ft | 336 kts | 239° |
| 2026-04-30 18:46 | 24.95472 | 120.89476 | 11291 ft | 345 kts | 239° |
| 2026-04-30 18:46 | 24.94162 | 120.87215 | 11460 ft | 355 kts | 239° |
| 2026-04-30 18:46 | 24.92827 | 120.84913 | 11807 ft | 359 kts | 239° |
| 2026-04-30 18:46 | 24.91478 | 120.82589 | 12228 ft | 360 kts | 239° |
| 2026-04-30 18:47 | 24.90121 | 120.80251 | 12575 ft | 363 kts | 239° |
| 2026-04-30 18:47 | 24.88760 | 120.77908 | 12990 ft | 364 kts | 239° |
| 2026-04-30 18:47 | 24.87386 | 120.75541 | 13319 ft | 368 kts | 239° |
| 2026-04-30 18:47 | 24.86025 | 120.73198 | 13682 ft | 370 kts | 239° |
| 2026-04-30 18:48 | 24.84634 | 120.70805 | 14008 ft | 372 kts | 239° |
| 2026-04-30 18:48 | 24.83233 | 120.68397 | 14330 ft | 374 kts | 239° |
| 2026-04-30 18:48 | 24.81828 | 120.65984 | 14640 ft | 376 kts | 239° |
| 2026-04-30 18:48 | 24.80415 | 120.63557 | 14954 ft | 377 kts | 239° |
| 2026-04-30 18:49 | 24.78999 | 120.61125 | 15254 ft | 379 kts | 239° |
| 2026-04-30 18:49 | 24.77569 | 120.58671 | 15557 ft | 381 kts | 239° |
| 2026-04-30 18:49 | 24.76136 | 120.56215 | 15854 ft | 383 kts | 239° |
| 2026-04-30 18:49 | 24.74715 | 120.53779 | 16142 ft | 384 kts | 239° |
| 2026-04-30 18:50 | 24.73154 | 120.51377 | 16435 ft | 389 kts | 231° |
| 2026-04-30 18:50 | 24.71168 | 120.49336 | 16737 ft | 393 kts | 222° |
| 2026-04-30 18:50 | 24.68984 | 120.47513 | 17014 ft | 396 kts | 218° |
| 2026-04-30 18:50 | 24.66701 | 120.45790 | 17267 ft | 399 kts | 217° |
| 2026-04-30 18:51 | 24.64378 | 120.44107 | 17532 ft | 401 kts | 216° |
| 2026-04-30 18:51 | 24.62040 | 120.42419 | 17827 ft | 403 kts | 217° |
| 2026-04-30 18:51 | 24.59701 | 120.40710 | 18095 ft | 405 kts | 217° |
| 2026-04-30 18:51 | 24.57369 | 120.38983 | 18381 ft | 405 kts | 217° |
| 2026-04-30 18:52 | 24.55062 | 120.37256 | 18595 ft | 407 kts | 218° |
| 2026-04-30 18:52 | 24.52728 | 120.35497 | 18846 ft | 408 kts | 218° |
| 2026-04-30 18:52 | 24.50387 | 120.33727 | 19058 ft | 410 kts | 218° |
| 2026-04-30 18:52 | 24.48033 | 120.31946 | 19322 ft | 410 kts | 218° |
| 2026-04-30 18:53 | 24.45679 | 120.30168 | 19580 ft | 411 kts | 218° |
| 2026-04-30 18:53 | 24.43315 | 120.28370 | 19719 ft | 415 kts | 218° |
| 2026-04-30 18:53 | 24.40958 | 120.26546 | 20003 ft | 415 kts | 218° |
| 2026-04-30 18:53 | 24.38609 | 120.24708 | 20187 ft | 418 kts | 218° |
| 2026-04-30 18:54 | 24.36228 | 120.22842 | 20345 ft | 421 kts | 218° |
| 2026-04-30 18:54 | 24.33874 | 120.21004 | 20672 ft | 420 kts | 219° |
| 2026-04-30 18:54 | 24.31495 | 120.19150 | 20940 ft | 421 kts | 218° |
| 2026-04-30 18:54 | 24.29097 | 120.17288 | 21182 ft | 422 kts | 219° |
| 2026-04-30 18:55 | 24.26698 | 120.15427 | 21401 ft | 425 kts | 219° |
| 2026-04-30 18:55 | 24.21855 | 120.11673 | 21860 ft | 429 kts | 219° |
| 2026-04-30 18:55 | 24.19421 | 120.09788 | 22103 ft | 430 kts | 218° |
| 2026-04-30 18:56 | 24.14489 | 120.05974 | 22571 ft | 434 kts | 218° |
| 2026-04-30 18:56 | 24.12054 | 120.04104 | 22877 ft | 435 kts | 218° |
| 2026-04-30 18:56 | 24.09574 | 120.02189 | 23078 ft | 437 kts | 219° |
| 2026-04-30 18:57 | 24.04610 | 119.98350 | 23561 ft | 440 kts | 218° |
| 2026-04-30 18:57 | 24.02097 | 119.96410 | 23737 ft | 442 kts | 219° |
| 2026-04-30 18:57 | 23.99580 | 119.94469 | 23927 ft | 444 kts | 218° |
| 2026-04-30 18:58 | 23.94512 | 119.90565 | 24336 ft | 446 kts | 218° |
| 2026-04-30 18:58 | 23.92003 | 119.88631 | 24554 ft | 448 kts | 218° |
| 2026-04-30 18:58 | 23.89456 | 119.86671 | 24802 ft | 448 kts | 218° |
| 2026-04-30 18:59 | 23.84336 | 119.82734 | 25260 ft | 452 kts | 218° |
| 2026-04-30 19:00 | 23.76578 | 119.76778 | 26045 ft | 456 kts | 218° |
| 2026-04-30 19:00 | 23.73974 | 119.74781 | 26296 ft | 458 kts | 218° |
| 2026-04-30 19:00 | 23.68763 | 119.70790 | 26895 ft | 459 kts | 218° |
| 2026-04-30 19:01 | 23.63506 | 119.66762 | 27400 ft | 463 kts | 218° |
| 2026-04-30 19:01 | 23.60990 | 119.64569 | 27649 ft | 461 kts | 226° |
| 2026-04-30 19:02 | 23.56953 | 119.59267 | 28162 ft | 459 kts | 238° |
| 2026-04-30 19:02 | 23.53470 | 119.53413 | 28658 ft | 461 kts | 240° |
| 2026-04-30 19:03 | 23.50069 | 119.47454 | 29120 ft | 463 kts | 240° |
| 2026-04-30 19:03 | 23.46646 | 119.41488 | 29572 ft | 466 kts | 240° |
| 2026-04-30 19:04 | 23.43181 | 119.35508 | 29977 ft | 469 kts | 240° |
| 2026-04-30 19:04 | 23.39703 | 119.29534 | 30319 ft | 471 kts | 240° |
| 2026-04-30 19:05 | 23.36186 | 119.23501 | 30666 ft | 472 kts | 239° |
| 2026-04-30 19:05 | 23.32673 | 119.17480 | 31128 ft | 471 kts | 239° |
| 2026-04-30 19:06 | 23.29169 | 119.11481 | 31655 ft | 467 kts | 239° |
| 2026-04-30 19:06 | 23.27431 | 119.08508 | 31940 ft | 465 kts | 239° |
| 2026-04-30 19:06 | 23.23992 | 119.02628 | 32344 ft | 463 kts | 239° |
| 2026-04-30 19:07 | 23.20538 | 118.96729 | 32752 ft | 462 kts | 239° |
| 2026-04-30 19:07 | 23.18813 | 118.93786 | 32945 ft | 461 kts | 239° |
| 2026-04-30 19:08 | 23.15368 | 118.87912 | 33281 ft | 461 kts | 239° |
| 2026-04-30 19:08 | 23.11927 | 118.82054 | 33651 ft | 459 kts | 239° |
| 2026-04-30 19:08 | 23.10234 | 118.79173 | 33838 ft | 458 kts | 239° |
| 2026-04-30 19:09 | 23.06800 | 118.73338 | 34004 ft | 460 kts | 240° |
| 2026-04-30 19:09 | 23.03356 | 118.67488 | 34004 ft | 460 kts | 240° |
| 2026-04-30 19:10 | 22.96142 | 118.56008 | 34005 ft | 465 kts | 230° |
| 2026-04-30 19:11 | 22.88279 | 118.49805 | 34003 ft | 474 kts | 213° |
| 2026-04-30 19:12 | 22.82489 | 118.46391 | 34001 ft | 473 kts | 213° |
| 2026-04-30 19:12 | 22.76700 | 118.43041 | 34001 ft | 471 kts | 213° |
| 2026-04-30 19:13 | 22.65335 | 118.36385 | 34006 ft | 470 kts | 213° |
| 2026-04-30 19:14 | 22.59584 | 118.33006 | 33998 ft | 470 kts | 213° |
| 2026-04-30 19:14 | 22.53838 | 118.29628 | 34000 ft | 470 kts | 213° |
| 2026-04-30 19:15 | 22.48088 | 118.26255 | 33997 ft | 470 kts | 213° |
| 2026-04-30 19:15 | 22.39505 | 118.21230 | 33998 ft | 470 kts | 213° |
| 2026-04-30 19:16 | 22.33750 | 118.17865 | 33995 ft | 470 kts | 213° |
| 2026-04-30 19:17 | 22.25150 | 118.12818 | 33996 ft | 469 kts | 213° |